createdAt,value
2019-01-25T00:01:05.581Z,0.30
2019-01-25T00:03:36.357Z,0.40
2019-01-25T00:06:08.066Z,0.40
2019-01-25T00:08:39.396Z,0.40
2019-01-25T00:11:10.451Z,0.10
2019-01-25T00:13:41.586Z,0.10
2019-01-25T00:16:13.104Z,0.30
2019-01-25T00:18:45.113Z,0.10
2019-01-25T00:21:16.313Z,0.30
2019-01-25T00:23:46.566Z,0.20
2019-01-25T00:26:17.240Z,0.20
2019-01-25T00:28:47.467Z,-0.10
2019-01-25T00:31:17.727Z,-0.10
2019-01-25T00:33:50.855Z,-0.10
2019-01-25T00:36:21.199Z,0.00
2019-01-25T00:38:51.561Z,-0.20
2019-01-25T00:41:22.797Z,-0.20
2019-01-25T00:43:54.285Z,0.00
2019-01-25T00:46:25.569Z,0.10
2019-01-25T00:56:29.952Z,0.10
2019-01-25T00:59:02.754Z,0.20
2019-01-25T01:04:05.744Z,0.30
2019-01-25T01:06:35.954Z,0.30
2019-01-25T01:11:39.297Z,0.20
2019-01-25T01:14:12.313Z,0.30
2019-01-25T01:16:43.520Z,0.30
2019-01-25T01:21:46.554Z,0.50
2019-01-25T01:26:49.718Z,0.60
2019-01-25T01:31:52.739Z,0.50
2019-01-25T01:36:56.096Z,0.50
2019-01-25T01:39:28.659Z,0.40
2019-01-25T01:44:30.197Z,0.60
2019-01-25T01:47:01.267Z,0.60
2019-01-25T01:49:31.533Z,0.70
2019-01-25T01:54:36.245Z,0.60
2019-01-25T01:59:39.543Z,0.50
2019-01-25T02:04:41.923Z,0.50
2019-01-25T02:07:12.213Z,0.60
2019-01-25T02:12:22.839Z,0.60
2019-01-25T02:14:53.252Z,0.50
2019-01-25T02:17:24.378Z,0.40
2019-01-25T02:22:26.241Z,0.60
2019-01-25T02:24:57.792Z,0.50
2019-01-25T02:27:29.317Z,0.50
2019-01-25T02:30:00.494Z,0.40
2019-01-25T02:32:30.909Z,0.50
2019-01-25T02:35:01.202Z,0.60
2019-01-25T02:37:31.497Z,0.60
2019-01-25T02:40:01.807Z,0.40
2019-01-25T02:45:04.421Z,0.60
2019-01-25T02:47:35.791Z,0.50
2019-01-25T02:50:14.193Z,0.50
2019-01-25T02:55:16.769Z,0.40
2019-01-25T03:02:54.057Z,0.40
2019-01-25T03:05:25.753Z,0.40
2019-01-25T03:10:28.935Z,0.60
2019-01-25T03:13:01.823Z,0.60
2019-01-25T03:15:32.952Z,0.60
2019-01-25T03:18:04.137Z,0.60
2019-01-25T03:20:34.152Z,0.60
2019-01-25T03:23:05.247Z,0.70
2019-01-25T03:30:41.053Z,0.60
2019-01-25T03:33:12.064Z,0.60
2019-01-25T03:35:43.336Z,0.60
2019-01-25T03:40:45.364Z,0.50
2019-01-25T03:43:17.345Z,0.40
2019-01-25T03:45:49.005Z,0.40
2019-01-25T03:48:20.274Z,0.50
2019-01-25T03:50:51.407Z,0.50
2019-01-25T03:53:21.715Z,0.40
2019-01-25T03:55:51.989Z,0.60
2019-01-25T03:58:23.068Z,0.60
2019-01-25T04:00:54.361Z,0.60
2019-01-25T04:03:26.434Z,0.50
2019-01-25T04:05:56.128Z,0.50
2019-01-25T04:08:28.306Z,0.40
2019-01-25T04:11:03.634Z,0.10
2019-01-25T04:13:31.539Z,0.20
2019-01-25T04:16:01.835Z,0.20
2019-01-25T04:18:33.075Z,0.50
2019-01-25T04:21:03.358Z,0.50
2019-01-25T04:23:34.516Z,0.70
2019-01-25T04:26:05.633Z,0.70
2019-01-25T04:28:35.928Z,0.40
2019-01-25T04:31:06.229Z,0.20
2019-01-25T04:33:37.355Z,0.10
2019-01-25T04:36:07.758Z,0.10
2019-01-25T04:38:38.893Z,0.20
2019-01-25T04:41:11.817Z,0.10
2019-01-25T04:43:44.234Z,0.20
2019-01-25T04:46:17.161Z,0.20
2019-01-25T04:48:47.423Z,0.30
2019-01-25T04:53:47.397Z,0.30
2019-01-25T04:56:20.234Z,0.20
2019-01-25T04:58:50.503Z,0.30
2019-01-25T05:01:21.845Z,0.10
2019-01-25T05:03:52.058Z,0.10
2019-01-25T05:06:26.153Z,0.20
2019-01-25T05:08:58.599Z,0.30
2019-01-25T05:11:29.730Z,0.50
2019-01-25T05:14:00.906Z,0.40
2019-01-25T05:16:31.181Z,0.30
2019-01-25T05:19:02.309Z,0.40
2019-01-25T05:21:33.377Z,0.40
2019-01-25T05:24:08.992Z,0.50
2019-01-25T05:26:41.569Z,0.60
2019-01-25T05:29:14.808Z,0.60
2019-01-25T05:31:50.421Z,0.70
2019-01-25T05:34:21.525Z,0.70
2019-01-25T05:36:57.475Z,0.80
2019-01-25T05:39:28.502Z,0.80
2019-01-25T05:41:59.934Z,0.70
2019-01-25T05:44:32.422Z,0.70
2019-01-25T05:47:13.313Z,0.70
2019-01-25T05:49:43.493Z,0.60
2019-01-25T05:52:19.685Z,0.80
2019-01-25T05:54:51.237Z,0.80
2019-01-25T05:57:22.301Z,0.70
2019-01-25T05:59:56.581Z,0.60
2019-01-25T06:02:28.517Z,0.60
2019-01-25T06:05:01.285Z,0.90
2019-01-25T06:07:31.702Z,0.80
2019-01-25T06:10:05.201Z,1.00
2019-01-25T06:12:35.487Z,0.90
2019-01-25T06:15:09.666Z,0.90
2019-01-25T06:17:41.285Z,1.00
2019-01-25T06:20:14.487Z,1.00
2019-01-25T06:22:47.335Z,1.00
2019-01-25T06:25:18.550Z,1.00
2019-01-25T06:27:51.286Z,0.90
2019-01-25T06:30:22.606Z,1.10
2019-01-25T06:32:53.773Z,1.10
2019-01-25T06:35:26.034Z,1.10
2019-01-25T06:40:27.169Z,1.10
2019-01-25T06:42:59.707Z,1.00
2019-01-25T06:45:32.591Z,1.00
2019-01-25T06:48:03.798Z,0.90
2019-01-25T06:50:34.970Z,1.00
2019-01-25T06:53:06.182Z,0.90
2019-01-25T06:55:37.425Z,0.90
2019-01-25T07:01:08.515Z,0.90
2019-01-25T07:03:39.558Z,0.90
2019-01-25T07:06:13.089Z,0.90
2019-01-25T07:08:44.241Z,0.90
2019-01-25T07:11:15.960Z,1.00
2019-01-25T07:13:49.596Z,1.00
2019-01-25T07:16:19.864Z,0.90
2019-01-25T07:18:51.906Z,0.90
2019-01-25T07:21:23.321Z,0.90
2019-01-25T07:28:54.986Z,1.00
2019-01-25T07:31:26.354Z,0.90
2019-01-25T07:33:56.646Z,0.90
2019-01-25T07:36:27.017Z,0.90
2019-01-25T07:38:58.180Z,0.90
2019-01-25T07:41:29.675Z,0.90
2019-01-25T07:43:59.187Z,0.90
2019-01-25T07:46:30.979Z,0.90
2019-01-25T07:49:01.178Z,0.80
2019-01-25T07:51:35.305Z,0.80
2019-01-25T07:54:05.780Z,0.90
2019-01-25T07:56:36.089Z,1.00
2019-01-25T07:59:07.712Z,1.00
2019-01-25T08:04:11.634Z,1.00
2019-01-25T08:06:45.838Z,1.10
2019-01-25T08:09:17.562Z,1.20
2019-01-25T08:11:50.512Z,1.10
2019-01-25T08:14:22.142Z,1.20
2019-01-25T08:16:53.340Z,1.00
2019-01-25T08:19:26.356Z,1.10
2019-01-25T08:24:47.266Z,1.00
2019-01-25T08:27:18.488Z,0.90
2019-01-25T08:29:50.787Z,0.80
2019-01-25T08:32:21.850Z,0.80
2019-01-25T08:34:53.034Z,0.60
2019-01-25T08:37:23.366Z,0.60
2019-01-25T08:39:54.502Z,0.80
2019-01-25T08:42:27.330Z,0.70
2019-01-25T08:45:00.514Z,0.80
2019-01-25T08:47:33.858Z,0.90
2019-01-25T08:50:07.202Z,0.80
2019-01-25T08:52:37.924Z,0.70
2019-01-25T08:55:11.113Z,0.70
2019-01-25T08:57:41.369Z,0.60
2019-01-25T09:00:15.984Z,0.70
2019-01-25T09:02:47.294Z,0.80
2019-01-25T09:05:18.248Z,0.80
2019-01-25T09:07:48.449Z,0.80
2019-01-25T09:10:23.595Z,0.90
2019-01-25T09:12:53.798Z,1.10
2019-01-25T09:15:26.666Z,1.20
2019-01-25T09:17:58.724Z,1.20
2019-01-25T09:25:30.838Z,1.20
2019-01-25T09:28:01.973Z,0.90
2019-01-25T09:30:33.542Z,0.90
2019-01-25T09:33:09.930Z,1.00
2019-01-25T09:35:42.697Z,1.10
2019-01-25T09:38:13.841Z,1.20
2019-01-25T09:40:46.258Z,1.30
2019-01-25T09:43:17.465Z,1.50
2019-01-25T09:45:47.670Z,1.50
2019-01-25T09:48:17.857Z,1.50
2019-01-25T09:50:52.819Z,1.50
2019-01-25T09:53:22.009Z,1.50
2019-01-25T09:55:52.161Z,1.40
2019-01-25T09:58:27.127Z,1.20
2019-01-25T10:01:02.394Z,1.20
2019-01-25T10:03:32.962Z,1.30
2019-01-25T10:06:04.942Z,1.20
2019-01-25T10:08:36.676Z,1.20
2019-01-25T10:11:09.515Z,1.20
2019-01-25T10:13:40.763Z,1.20
2019-01-25T10:16:11.049Z,1.30
2019-01-25T10:18:42.089Z,1.40
2019-01-25T10:21:12.450Z,1.20
2019-01-25T10:23:44.049Z,1.20
2019-01-25T10:26:17.131Z,1.30
2019-01-25T10:28:47.663Z,1.30
2019-01-25T10:31:18.777Z,1.30
2019-01-25T10:33:50.958Z,1.30
2019-01-25T10:36:22.401Z,1.40
2019-01-25T10:38:52.621Z,1.40
2019-01-25T10:41:23.854Z,1.40
2019-01-25T10:43:54.042Z,1.60
2019-01-25T10:48:55.798Z,1.60
2019-01-25T10:51:29.898Z,1.80
2019-01-25T10:54:00.270Z,2.00
2019-01-25T10:56:30.679Z,2.00
2019-01-25T10:59:01.836Z,2.10
2019-01-25T11:01:32.973Z,2.10
2019-01-25T11:04:04.177Z,1.90
2019-01-25T11:06:34.401Z,1.90
2019-01-25T11:09:08.058Z,1.90
2019-01-25T11:11:39.429Z,2.10
2019-01-25T11:14:10.579Z,2.10
2019-01-25T11:16:42.485Z,2.20
2019-01-25T11:19:14.995Z,2.20
2019-01-25T11:21:45.129Z,2.00
2019-01-25T11:24:15.481Z,2.00
2019-01-25T11:26:46.610Z,2.10
2019-01-25T11:29:20.530Z,2.10
2019-01-25T11:31:51.732Z,2.20
2019-01-25T11:34:22.330Z,2.30
2019-01-25T11:36:53.667Z,2.10
2019-01-25T11:39:23.849Z,2.10
2019-01-25T11:41:57.323Z,2.00
2019-01-25T11:44:28.714Z,2.00
2019-01-25T11:47:01.617Z,2.10
2019-01-25T11:49:31.999Z,2.20
2019-01-25T11:52:03.307Z,2.20
2019-01-25T11:54:34.573Z,2.30
2019-01-25T11:57:05.815Z,2.40
2019-01-25T11:59:40.217Z,2.50
2019-01-25T12:02:11.452Z,2.50
2019-01-25T12:04:43.946Z,2.50
2019-01-25T12:07:15.066Z,2.50
2019-01-25T12:09:46.511Z,2.60
2019-01-25T12:12:19.404Z,2.70
2019-01-25T12:14:54.728Z,2.80
2019-01-25T12:17:25.122Z,2.80
2019-01-25T12:19:54.601Z,3.00
2019-01-25T12:22:24.070Z,3.00
2019-01-25T12:24:55.296Z,2.90
2019-01-25T12:27:25.486Z,2.80
2019-01-25T12:29:55.686Z,3.00
2019-01-25T12:32:28.528Z,3.00
2019-01-25T12:35:01.540Z,3.00
2019-01-25T12:37:33.531Z,3.00
2019-01-25T12:40:07.784Z,3.10
2019-01-25T12:42:39.538Z,3.00
2019-01-25T12:45:15.898Z,3.20
2019-01-25T12:47:47.107Z,3.00
2019-01-25T12:50:41.977Z,3.10
2019-01-25T12:53:13.863Z,3.00
2019-01-25T12:55:45.011Z,3.10
2019-01-25T12:58:26.039Z,3.20
2019-01-25T13:00:56.446Z,3.30
2019-01-25T13:03:27.804Z,3.40
2019-01-25T13:06:00.025Z,3.60
2019-01-25T13:08:34.375Z,3.50
2019-01-25T13:11:06.405Z,3.50
2019-01-25T13:13:36.605Z,3.60
2019-01-25T13:16:07.740Z,3.60
2019-01-25T13:18:38.869Z,3.40
2019-01-25T13:21:11.504Z,3.40
2019-01-25T13:23:41.778Z,3.50
2019-01-25T13:26:12.938Z,3.50
2019-01-25T13:28:46.699Z,3.40
2019-01-25T13:31:16.919Z,3.30
2019-01-25T13:33:47.270Z,3.40
2019-01-25T13:36:18.389Z,3.50
2019-01-25T13:38:48.602Z,3.60
2019-01-25T13:41:19.833Z,3.70
2019-01-25T13:43:51.803Z,3.50
2019-01-25T13:46:22.942Z,3.50
2019-01-25T13:48:53.383Z,3.40
2019-01-25T13:51:24.626Z,3.30
2019-01-25T13:53:55.753Z,3.40
2019-01-25T13:56:27.800Z,3.40
2019-01-25T13:59:00.298Z,3.50
2019-01-25T14:01:34.663Z,3.50
2019-01-25T14:04:04.695Z,3.40
2019-01-25T14:06:37.513Z,3.50
2019-01-25T14:09:10.214Z,3.50
2019-01-25T14:11:41.450Z,3.50
2019-01-25T14:14:15.088Z,3.60
2019-01-25T14:16:46.228Z,3.60
2019-01-25T14:19:18.791Z,3.60
2019-01-25T14:21:51.660Z,3.50
2019-01-25T14:24:21.850Z,3.50
2019-01-25T14:26:52.990Z,3.50
2019-01-25T14:29:23.294Z,3.40
2019-01-25T14:31:53.542Z,3.40
2019-01-25T14:34:24.812Z,3.30
2019-01-25T14:36:57.253Z,3.40
2019-01-25T14:39:28.684Z,3.50
2019-01-25T14:41:59.854Z,3.50
2019-01-25T14:44:31.317Z,3.30
2019-01-25T14:47:02.585Z,3.40
2019-01-25T14:49:35.397Z,3.40
2019-01-25T14:52:08.622Z,3.40
2019-01-25T14:54:39.090Z,3.40
2019-01-25T14:57:11.206Z,3.30
2019-01-25T14:59:42.448Z,3.30
2019-01-25T15:02:13.654Z,3.30
2019-01-25T15:04:44.995Z,3.30
2019-01-25T15:07:16.133Z,3.40
2019-01-25T15:12:18.927Z,3.50
2019-01-25T15:14:49.561Z,3.50
2019-01-25T15:17:19.754Z,3.60
2019-01-25T15:19:51.976Z,3.60
2019-01-25T15:22:26.001Z,3.50
2019-01-25T15:24:57.159Z,3.50
2019-01-25T15:29:59.952Z,3.40
2019-01-25T15:35:00.842Z,3.30
2019-01-25T15:37:31.899Z,3.30
2019-01-25T15:40:03.217Z,3.20
2019-01-25T15:50:07.031Z,2.90
2019-01-25T15:55:10.680Z,2.80
2019-01-25T15:57:40.861Z,2.80
2019-01-25T16:00:14.622Z,2.80
2019-01-25T16:07:58.070Z,2.50
2019-01-25T16:10:30.429Z,2.50
2019-01-25T16:13:03.034Z,2.50
2019-01-25T16:15:34.273Z,2.40
2019-01-25T16:18:04.609Z,2.40
2019-01-25T16:25:37.469Z,2.40
2019-01-25T16:38:09.390Z,2.20
2019-01-25T16:45:43.550Z,2.20
2019-01-25T16:50:47.815Z,2.20
2019-01-25T16:58:22.378Z,2.20
2019-01-25T17:05:53.509Z,2.20
2019-01-25T17:08:26.530Z,2.20
2019-01-25T17:15:58.460Z,2.20
2019-01-25T17:18:31.370Z,2.30
2019-01-25T17:23:34.889Z,2.20
2019-01-25T17:36:06.479Z,2.10
2019-01-25T17:43:38.451Z,2.10
2019-01-25T17:51:11.882Z,2.10
2019-01-25T17:53:42.965Z,2.10
2019-01-25T18:01:17.213Z,2.00
2019-01-25T18:08:50.154Z,2.10
2019-01-25T18:23:52.147Z,2.00
2019-01-25T18:26:22.517Z,2.10
2019-01-25T18:33:57.898Z,2.20
2019-01-25T18:36:29.055Z,2.30
2019-01-25T18:39:00.185Z,2.40
2019-01-25T18:49:03.494Z,2.30
2019-01-25T18:51:33.674Z,2.30
2019-01-25T18:54:07.973Z,2.20
2019-01-25T18:59:10.256Z,2.20
2019-01-25T19:04:13.853Z,2.30
2019-01-25T19:16:45.693Z,2.50
2019-01-25T19:34:22.998Z,2.50
2019-01-25T19:36:56.058Z,2.50
2019-01-25T19:39:27.257Z,2.60
2019-01-25T19:41:58.431Z,2.60
2019-01-25T19:44:30.625Z,2.60
2019-01-25T19:47:01.818Z,2.60
2019-01-25T19:54:39.926Z,2.60
2019-01-25T20:07:14.165Z,2.50
2019-01-25T20:09:47.019Z,2.50
2019-01-25T20:22:23.893Z,2.50
2019-01-25T20:37:35.142Z,2.70
2019-01-25T20:40:08.553Z,2.90
2019-01-25T20:45:12.519Z,2.80
2019-01-25T20:47:43.725Z,2.90
2019-01-25T20:50:19.777Z,3.00
2019-01-25T21:00:29.482Z,3.00
2019-01-25T21:08:02.738Z,2.80
2019-01-25T21:23:08.846Z,3.00
2019-01-25T21:30:41.594Z,3.10
2019-01-25T21:38:12.645Z,3.30
2019-01-25T21:48:14.799Z,3.40
2019-01-25T21:53:17.893Z,3.50
2019-01-25T21:58:20.083Z,3.50
2019-01-25T22:00:51.617Z,3.50
2019-01-25T22:08:23.318Z,3.50
2019-01-25T22:10:54.705Z,3.60
2019-01-25T22:13:27.177Z,3.60
2019-01-25T22:18:29.242Z,3.70
2019-01-25T22:20:59.459Z,3.80
2019-01-25T22:23:29.751Z,3.70
2019-01-25T22:28:33.382Z,3.90
2019-01-25T22:31:04.653Z,3.80
2019-01-25T22:38:36.840Z,4.00
2019-01-25T22:41:07.929Z,4.10
2019-01-25T22:46:10.946Z,4.00
2019-01-25T22:48:44.708Z,4.00
2019-01-25T22:53:47.368Z,4.20
2019-01-25T23:04:01.945Z,4.10
2019-01-25T23:06:38.912Z,4.10
2019-01-25T23:11:45.973Z,4.20
2019-01-25T23:14:16.602Z,4.20
2019-01-25T23:16:47.774Z,4.20
2019-01-25T23:24:20.569Z,4.20
2019-01-25T23:26:53.439Z,4.20
2019-01-25T23:31:53.868Z,4.30
2019-01-25T23:41:54.722Z,4.40
2019-01-25T23:44:25.877Z,4.40
2019-01-25T23:49:26.769Z,4.50
2019-01-25T23:54:26.759Z,4.50
2019-01-25T23:59:28.639Z,4.50
